San Antonio, Texas
Traffic Map
Current Weather Conditions
San Antonio, Texas
Clear
Clear
24°
Feels Like: 24°
Wind Chill: 24° Ceiling: Unl
Heat Index: 24° Visibility: 10mi
Dew Point: 23° Wind: 7mph
Humidity: 94% Direction: 160° (SSE)
Pressure: 29.97in Gusts: 0mph
Raw Report DataKSKF 040658Z AUTO 16006KT 10SM CLR 24/23 A2997 RMK AO2 SLP141 T02380228 $
Traffic Incident Summary
Active as of:
Severity:
Category:
InformationThere was an issue retrieving the traffic information for this location. Please try a different location or try again shortly.
Advertisements
Track Severe Weather on mobile